sensor_id;sensor_type;location;lat;lon;timestamp;P1;durP1;ratioP1;P2;durP2;ratioP2
75608;SDS011;64194;51.044;13.780;2023-01-15T00:03:24;2.03;;;0.80;;
75608;SDS011;64194;51.044;13.780;2023-01-15T00:07:26;3.55;;;1.00;;
75608;SDS011;64194;51.044;13.780;2023-01-15T00:11:28;2.50;;;1.08;;
75608;SDS011;64194;51.044;13.780;2023-01-15T00:15:29;3.60;;;1.20;;
75608;SDS011;64194;51.044;13.780;2023-01-15T00:19:32;2.75;;;1.10;;
75608;SDS011;64194;51.044;13.780;2023-01-15T00:23:33;2.85;;;1.00;;
75608;SDS011;64194;51.044;13.780;2023-01-15T00:27:54;2.65;;;1.10;;
75608;SDS011;64194;51.044;13.780;2023-01-15T00:32:00;3.05;;;1.08;;
75608;SDS011;64194;51.044;13.780;2023-01-15T00:36:04;3.92;;;1.30;;
75608;SDS011;64194;51.044;13.780;2023-01-15T00:40:06;3.88;;;1.40;;
75608;SDS011;64194;51.044;13.780;2023-01-15T00:44:09;3.20;;;1.10;;
75608;SDS011;64194;51.044;13.780;2023-01-15T00:48:11;3.58;;;1.30;;
75608;SDS011;64194;51.044;13.780;2023-01-15T00:52:12;4.97;;;1.63;;
75608;SDS011;64194;51.044;13.780;2023-01-15T00:56:14;3.10;;;1.10;;
75608;SDS011;64194;51.044;13.780;2023-01-15T01:00:16;5.28;;;1.15;;
75608;SDS011;64194;51.044;13.780;2023-01-15T01:04:18;3.00;;;1.20;;
75608;SDS011;64194;51.044;13.780;2023-01-15T01:08:19;2.42;;;0.98;;
75608;SDS011;64194;51.044;13.780;2023-01-15T01:12:21;2.63;;;1.10;;
75608;SDS011;64194;51.044;13.780;2023-01-15T01:16:25;2.38;;;0.90;;
75608;SDS011;64194;51.044;13.780;2023-01-15T01:20:32;2.30;;;0.93;;
75608;SDS011;64194;51.044;13.780;2023-01-15T01:24:34;2.03;;;0.90;;
75608;SDS011;64194;51.044;13.780;2023-01-15T01:28:36;2.35;;;0.95;;
75608;SDS011;64194;51.044;13.780;2023-01-15T01:32:37;2.97;;;1.23;;
75608;SDS011;64194;51.044;13.780;2023-01-15T01:36:40;2.53;;;1.13;;
75608;SDS011;64194;51.044;13.780;2023-01-15T01:40:44;2.92;;;1.23;;
75608;SDS011;64194;51.044;13.780;2023-01-15T01:48:48;2.92;;;1.58;;
75608;SDS011;64194;51.044;13.780;2023-01-15T01:52:55;4.50;;;2.20;;
75608;SDS011;64194;51.044;13.780;2023-01-15T01:57:00;4.28;;;2.42;;
75608;SDS011;64194;51.044;13.780;2023-01-15T02:01:03;4.35;;;2.50;;
75608;SDS011;64194;51.044;13.780;2023-01-15T02:05:06;4.85;;;2.67;;
75608;SDS011;64194;51.044;13.780;2023-01-15T02:09:09;4.43;;;2.42;;
75608;SDS011;64194;51.044;13.780;2023-01-15T02:13:15;4.70;;;2.33;;
75608;SDS011;64194;51.044;13.780;2023-01-15T02:17:28;4.40;;;2.20;;
75608;SDS011;64194;51.044;13.780;2023-01-15T02:26:02;6.38;;;2.72;;
75608;SDS011;64194;51.044;13.780;2023-01-15T02:30:12;3.97;;;2.13;;
75608;SDS011;64194;51.044;13.780;2023-01-15T02:34:30;3.58;;;1.80;;
75608;SDS011;64194;51.044;13.780;2023-01-15T02:38:44;4.78;;;2.13;;
75608;SDS011;64194;51.044;13.780;2023-01-15T02:42:51;3.70;;;1.52;;
75608;SDS011;64194;51.044;13.780;2023-01-15T02:46:55;3.78;;;1.80;;
75608;SDS011;64194;51.044;13.780;2023-01-15T02:51:02;3.10;;;1.52;;
75608;SDS011;64194;51.044;13.780;2023-01-15T02:55:13;3.75;;;1.73;;
75608;SDS011;64194;51.044;13.780;2023-01-15T02:59:21;4.03;;;2.00;;
75608;SDS011;64194;51.044;13.780;2023-01-15T03:03:45;3.30;;;1.52;;
75608;SDS011;64194;51.044;13.780;2023-01-15T03:07:54;3.92;;;1.63;;
75608;SDS011;64194;51.044;13.780;2023-01-15T03:12:08;3.47;;;1.50;;
75608;SDS011;64194;51.044;13.780;2023-01-15T03:16:38;3.03;;;1.40;;
75608;SDS011;64194;51.044;13.780;2023-01-15T03:20:50;3.35;;;1.40;;
75608;SDS011;64194;51.044;13.780;2023-01-15T03:24:56;3.30;;;1.40;;
75608;SDS011;64194;51.044;13.780;2023-01-15T03:29:09;2.75;;;1.20;;
75608;SDS011;64194;51.044;13.780;2023-01-15T03:33:13;2.17;;;0.80;;
75608;SDS011;64194;51.044;13.780;2023-01-15T03:37:15;1.27;;;0.50;;
75608;SDS011;64194;51.044;13.780;2023-01-15T03:41:28;1.02;;;0.43;;
75608;SDS011;64194;51.044;13.780;2023-01-15T03:45:40;0.80;;;0.32;;
75608;SDS011;64194;51.044;13.780;2023-01-15T03:54:14;0.88;;;0.40;;
75608;SDS011;64194;51.044;13.780;2023-01-15T03:58:23;1.23;;;0.30;;
75608;SDS011;64194;51.044;13.780;2023-01-15T04:02:30;1.42;;;0.50;;
75608;SDS011;64194;51.044;13.780;2023-01-15T04:06:33;1.13;;;0.40;;
75608;SDS011;64194;51.044;13.780;2023-01-15T04:10:37;1.30;;;0.50;;
75608;SDS011;64194;51.044;13.780;2023-01-15T04:14:43;1.05;;;0.35;;
75608;SDS011;64194;51.044;13.780;2023-01-15T04:18:50;0.70;;;0.30;;
75608;SDS011;64194;51.044;13.780;2023-01-15T04:22:53;1.58;;;0.50;;
75608;SDS011;64194;51.044;13.780;2023-01-15T04:26:54;1.40;;;0.82;;
75608;SDS011;64194;51.044;13.780;2023-01-15T04:30:56;0.98;;;0.40;;
75608;SDS011;64194;51.044;13.780;2023-01-15T04:34:58;2.63;;;0.95;;
75608;SDS011;64194;51.044;13.780;2023-01-15T04:39:00;3.30;;;1.30;;
75608;SDS011;64194;51.044;13.780;2023-01-15T04:43:03;3.70;;;2.05;;
75608;SDS011;64194;51.044;13.780;2023-01-15T04:47:23;4.03;;;1.83;;
75608;SDS011;64194;51.044;13.780;2023-01-15T04:51:25;4.03;;;1.73;;
75608;SDS011;64194;51.044;13.780;2023-01-15T04:55:27;3.13;;;1.33;;
75608;SDS011;64194;51.044;13.780;2023-01-15T04:59:30;2.90;;;1.30;;
75608;SDS011;64194;51.044;13.780;2023-01-15T05:03:31;3.20;;;1.42;;
75608;SDS011;64194;51.044;13.780;2023-01-15T05:07:33;3.33;;;1.58;;
75608;SDS011;64194;51.044;13.780;2023-01-15T05:11:35;4.47;;;1.40;;
75608;SDS011;64194;51.044;13.780;2023-01-15T05:15:38;3.90;;;1.48;;
75608;SDS011;64194;51.044;13.780;2023-01-15T05:19:43;3.00;;;1.20;;
75608;SDS011;64194;51.044;13.780;2023-01-15T05:23:45;2.80;;;1.25;;
75608;SDS011;64194;51.044;13.780;2023-01-15T05:27:47;4.93;;;1.40;;
75608;SDS011;64194;51.044;13.780;2023-01-15T05:31:49;2.83;;;1.10;;
75608;SDS011;64194;51.044;13.780;2023-01-15T05:35:50;3.38;;;1.33;;
75608;SDS011;64194;51.044;13.780;2023-01-15T05:39:52;3.00;;;1.17;;
75608;SDS011;64194;51.044;13.780;2023-01-15T05:43:54;2.00;;;0.90;;
75608;SDS011;64194;51.044;13.780;2023-01-15T05:47:56;2.03;;;0.90;;
75608;SDS011;64194;51.044;13.780;2023-01-15T05:51:58;2.72;;;0.90;;
75608;SDS011;64194;51.044;13.780;2023-01-15T05:56:01;3.05;;;0.70;;
75608;SDS011;64194;51.044;13.780;2023-01-15T06:00:03;1.40;;;0.60;;
75608;SDS011;64194;51.044;13.780;2023-01-15T06:04:12;1.98;;;0.80;;
75608;SDS011;64194;51.044;13.780;2023-01-15T06:08:15;1.25;;;0.68;;
75608;SDS011;64194;51.044;13.780;2023-01-15T06:12:16;2.30;;;0.98;;
75608;SDS011;64194;51.044;13.780;2023-01-15T06:16:18;1.92;;;0.90;;
75608;SDS011;64194;51.044;13.780;2023-01-15T06:20:19;2.75;;;1.35;;
75608;SDS011;64194;51.044;13.780;2023-01-15T06:24:21;3.40;;;1.30;;
75608;SDS011;64194;51.044;13.780;2023-01-15T06:28:23;3.45;;;1.23;;
75608;SDS011;64194;51.044;13.780;2023-01-15T06:32:25;3.33;;;1.40;;
75608;SDS011;64194;51.044;13.780;2023-01-15T06:36:26;2.67;;;1.30;;
75608;SDS011;64194;51.044;13.780;2023-01-15T06:40:28;3.53;;;1.65;;
75608;SDS011;64194;51.044;13.780;2023-01-15T06:44:30;3.55;;;1.42;;
75608;SDS011;64194;51.044;13.780;2023-01-15T06:48:51;0.40;;;0.22;;
75608;SDS011;64194;51.044;13.780;2023-01-15T06:52:52;1.58;;;0.30;;
75608;SDS011;64194;51.044;13.780;2023-01-15T06:56:54;0.20;;;0.20;;
75608;SDS011;64194;51.044;13.780;2023-01-15T07:00:55;1.80;;;0.70;;
75608;SDS011;64194;51.044;13.780;2023-01-15T07:04:57;0.65;;;0.30;;
75608;SDS011;64194;51.044;13.780;2023-01-15T07:08:58;1.05;;;0.40;;
75608;SDS011;64194;51.044;13.780;2023-01-15T07:13:00;1.02;;;0.50;;
75608;SDS011;64194;51.044;13.780;2023-01-15T07:17:02;0.82;;;0.35;;
75608;SDS011;64194;51.044;13.780;2023-01-15T07:21:04;1.33;;;0.50;;
75608;SDS011;64194;51.044;13.780;2023-01-15T07:25:05;1.23;;;0.50;;
75608;SDS011;64194;51.044;13.780;2023-01-15T07:29:08;2.50;;;0.50;;
75608;SDS011;64194;51.044;13.780;2023-01-15T07:33:09;1.70;;;0.65;;
75608;SDS011;64194;51.044;13.780;2023-01-15T07:37:11;2.20;;;0.70;;
75608;SDS011;64194;51.044;13.780;2023-01-15T07:41:13;2.13;;;0.85;;
75608;SDS011;64194;51.044;13.780;2023-01-15T07:45:33;1.70;;;0.90;;
75608;SDS011;64194;51.044;13.780;2023-01-15T07:49:58;2.13;;;1.00;;
75608;SDS011;64194;51.044;13.780;2023-01-15T07:54:00;2.97;;;0.73;;
75608;SDS011;64194;51.044;13.780;2023-01-15T07:58:02;2.03;;;0.80;;
75608;SDS011;64194;51.044;13.780;2023-01-15T08:02:04;3.25;;;0.90;;
75608;SDS011;64194;51.044;13.780;2023-01-15T08:06:05;3.53;;;1.10;;
75608;SDS011;64194;51.044;13.780;2023-01-15T08:10:08;4.65;;;1.38;;
75608;SDS011;64194;51.044;13.780;2023-01-15T08:14:11;2.35;;;1.00;;
75608;SDS011;64194;51.044;13.780;2023-01-15T08:18:31;1.42;;;0.50;;
75608;SDS011;64194;51.044;13.780;2023-01-15T08:22:33;3.10;;;0.57;;
75608;SDS011;64194;51.044;13.780;2023-01-15T08:26:34;1.58;;;0.55;;
75608;SDS011;64194;51.044;13.780;2023-01-15T08:30:36;2.63;;;0.70;;
75608;SDS011;64194;51.044;13.780;2023-01-15T08:34:37;1.25;;;0.70;;
75608;SDS011;64194;51.044;13.780;2023-01-15T08:38:40;2.33;;;0.70;;
75608;SDS011;64194;51.044;13.780;2023-01-15T08:42:43;2.45;;;0.90;;
75608;SDS011;64194;51.044;13.780;2023-01-15T08:46:46;1.98;;;0.68;;
75608;SDS011;64194;51.044;13.780;2023-01-15T08:50:48;1.70;;;0.63;;
75608;SDS011;64194;51.044;13.780;2023-01-15T08:54:51;2.05;;;0.70;;
75608;SDS011;64194;51.044;13.780;2023-01-15T08:58:52;3.80;;;0.90;;
75608;SDS011;64194;51.044;13.780;2023-01-15T09:02:54;1.60;;;0.57;;
75608;SDS011;64194;51.044;13.780;2023-01-15T09:06:55;1.55;;;0.80;;
75608;SDS011;64194;51.044;13.780;2023-01-15T09:10:58;2.42;;;0.90;;
75608;SDS011;64194;51.044;13.780;2023-01-15T09:15:01;2.55;;;0.90;;
75608;SDS011;64194;51.044;13.780;2023-01-15T09:19:04;2.42;;;0.68;;
75608;SDS011;64194;51.044;13.780;2023-01-15T09:23:07;2.35;;;0.63;;
75608;SDS011;64194;51.044;13.780;2023-01-15T09:27:11;2.67;;;0.63;;
75608;SDS011;64194;51.044;13.780;2023-01-15T09:31:13;2.17;;;0.77;;
75608;SDS011;64194;51.044;13.780;2023-01-15T09:35:15;3.67;;;0.98;;
75608;SDS011;64194;51.044;13.780;2023-01-15T09:39:17;4.65;;;1.10;;
75608;SDS011;64194;51.044;13.780;2023-01-15T09:47:58;3.83;;;1.10;;
75608;SDS011;64194;51.044;13.780;2023-01-15T09:52:11;3.58;;;1.25;;
75608;SDS011;64194;51.044;13.780;2023-01-15T09:56:26;2.70;;;1.00;;
75608;SDS011;64194;51.044;13.780;2023-01-15T10:00:39;2.30;;;0.85;;
75608;SDS011;64194;51.044;13.780;2023-01-15T10:04:46;3.40;;;1.20;;
75608;SDS011;64194;51.044;13.780;2023-01-15T10:08:55;3.40;;;1.40;;
75608;SDS011;64194;51.044;13.780;2023-01-15T10:17:59;3.92;;;0.98;;
75608;SDS011;64194;51.044;13.780;2023-01-15T10:22:04;2.83;;;0.90;;
75608;SDS011;64194;51.044;13.780;2023-01-15T10:30:40;3.00;;;1.60;;
75608;SDS011;64194;51.044;13.780;2023-01-15T10:39:26;2.50;;;0.93;;
75608;SDS011;64194;51.044;13.780;2023-01-15T10:43:39;2.72;;;0.80;;
75608;SDS011;64194;51.044;13.780;2023-01-15T10:47:59;1.95;;;0.80;;
75608;SDS011;64194;51.044;13.780;2023-01-15T10:52:18;2.20;;;0.60;;
75608;SDS011;64194;51.044;13.780;2023-01-15T11:01:09;1.25;;;0.50;;
75608;SDS011;64194;51.044;13.780;2023-01-15T11:05:16;1.17;;;0.35;;
75608;SDS011;64194;51.044;13.780;2023-01-15T11:09:20;1.42;;;0.50;;
75608;SDS011;64194;51.044;13.780;2023-01-15T11:13:35;1.40;;;0.52;;
75608;SDS011;64194;51.044;13.780;2023-01-15T11:17:55;1.95;;;0.50;;
75608;SDS011;64194;51.044;13.780;2023-01-15T11:22:29;1.90;;;0.45;;
75608;SDS011;64194;51.044;13.780;2023-01-15T11:26:31;1.17;;;0.43;;
75608;SDS011;64194;51.044;13.780;2023-01-15T11:30:34;1.35;;;0.50;;
75608;SDS011;64194;51.044;13.780;2023-01-15T11:34:38;2.55;;;0.60;;
75608;SDS011;64194;51.044;13.780;2023-01-15T11:38:44;1.17;;;0.40;;
75608;SDS011;64194;51.044;13.780;2023-01-15T11:42:48;1.08;;;0.50;;
75608;SDS011;64194;51.044;13.780;2023-01-15T11:47:10;1.20;;;0.50;;
75608;SDS011;64194;51.044;13.780;2023-01-15T11:51:41;1.30;;;0.40;;
75608;SDS011;64194;51.044;13.780;2023-01-15T11:55:55;1.85;;;0.55;;
75608;SDS011;64194;51.044;13.780;2023-01-15T12:00:01;3.17;;;0.60;;
75608;SDS011;64194;51.044;13.780;2023-01-15T12:04:22;1.77;;;0.40;;
75608;SDS011;64194;51.044;13.780;2023-01-15T12:08:47;1.55;;;0.43;;
75608;SDS011;64194;51.044;13.780;2023-01-15T12:13:04;0.50;;;0.40;;
75608;SDS011;64194;51.044;13.780;2023-01-15T12:26:18;1.38;;;0.40;;
75608;SDS011;64194;51.044;13.780;2023-01-15T12:35:04;1.77;;;0.60;;
75608;SDS011;64194;51.044;13.780;2023-01-15T12:39:22;1.98;;;0.60;;
75608;SDS011;64194;51.044;13.780;2023-01-15T12:43:28;1.73;;;0.50;;
75608;SDS011;64194;51.044;13.780;2023-01-15T12:52:04;1.23;;;0.40;;
75608;SDS011;64194;51.044;13.780;2023-01-15T12:56:54;1.40;;;0.57;;
75608;SDS011;64194;51.044;13.780;2023-01-15T13:01:01;2.15;;;0.85;;
75608;SDS011;64194;51.044;13.780;2023-01-15T13:05:14;1.85;;;0.38;;
75608;SDS011;64194;51.044;13.780;2023-01-15T13:13:39;1.63;;;0.60;;
75608;SDS011;64194;51.044;13.780;2023-01-15T13:22:09;1.50;;;0.40;;
75608;SDS011;64194;51.044;13.780;2023-01-15T13:26:41;1.85;;;0.47;;
75608;SDS011;64194;51.044;13.780;2023-01-15T13:31:06;0.82;;;0.40;;
75608;SDS011;64194;51.044;13.780;2023-01-15T13:39:34;2.00;;;0.35;;
75608;SDS011;64194;51.044;13.780;2023-01-15T13:43:42;1.85;;;0.40;;
75608;SDS011;64194;51.044;13.780;2023-01-15T13:47:46;2.00;;;0.70;;
75608;SDS011;64194;51.044;13.780;2023-01-15T13:51:52;1.27;;;0.60;;
75608;SDS011;64194;51.044;13.780;2023-01-15T13:56:00;0.68;;;0.40;;
75608;SDS011;64194;51.044;13.780;2023-01-15T14:00:07;2.08;;;0.40;;
75608;SDS011;64194;51.044;13.780;2023-01-15T14:04:36;1.60;;;0.60;;
75608;SDS011;64194;51.044;13.780;2023-01-15T14:08:40;1.33;;;0.40;;
75608;SDS011;64194;51.044;13.780;2023-01-15T14:17:01;2.17;;;0.40;;
75608;SDS011;64194;51.044;13.780;2023-01-15T14:21:56;0.38;;;0.15;;
75608;SDS011;64194;51.044;13.780;2023-01-15T14:30:17;1.35;;;0.40;;
75608;SDS011;64194;51.044;13.780;2023-01-15T14:34:40;1.67;;;0.50;;
75608;SDS011;64194;51.044;13.780;2023-01-15T14:38:54;1.70;;;0.50;;
75608;SDS011;64194;51.044;13.780;2023-01-15T14:43:00;0.52;;;0.28;;
75608;SDS011;64194;51.044;13.780;2023-01-15T14:47:23;1.38;;;0.50;;
75608;SDS011;64194;51.044;13.780;2023-01-15T14:51:45;0.95;;;0.40;;
75608;SDS011;64194;51.044;13.780;2023-01-15T14:56:05;1.13;;;0.30;;
75608;SDS011;64194;51.044;13.780;2023-01-15T15:00:15;1.25;;;0.40;;
75608;SDS011;64194;51.044;13.780;2023-01-15T15:08:34;1.00;;;0.28;;
75608;SDS011;64194;51.044;13.780;2023-01-15T15:16:46;0.70;;;0.25;;
75608;SDS011;64194;51.044;13.780;2023-01-15T15:24:59;1.02;;;0.40;;
75608;SDS011;64194;51.044;13.780;2023-01-15T15:29:11;1.02;;;0.20;;
75608;SDS011;64194;51.044;13.780;2023-01-15T15:33:17;1.42;;;0.30;;
75608;SDS011;64194;51.044;13.780;2023-01-15T15:37:26;1.35;;;0.40;;
75608;SDS011;64194;51.044;13.780;2023-01-15T15:41:33;1.90;;;0.55;;
75608;SDS011;64194;51.044;13.780;2023-01-15T15:45:56;1.73;;;0.50;;
75608;SDS011;64194;51.044;13.780;2023-01-15T15:50:23;2.05;;;0.77;;
75608;SDS011;64194;51.044;13.780;2023-01-15T15:54:31;1.95;;;0.50;;
75608;SDS011;64194;51.044;13.780;2023-01-15T15:58:35;1.23;;;0.40;;
75608;SDS011;64194;51.044;13.780;2023-01-15T16:02:38;1.88;;;0.50;;
75608;SDS011;64194;51.044;13.780;2023-01-15T16:06:41;2.25;;;0.50;;
75608;SDS011;64194;51.044;13.780;2023-01-15T16:10:44;1.75;;;0.50;;
75608;SDS011;64194;51.044;13.780;2023-01-15T16:14:51;1.83;;;0.52;;
75608;SDS011;64194;51.044;13.780;2023-01-15T16:18:57;2.22;;;0.70;;
75608;SDS011;64194;51.044;13.780;2023-01-15T16:23:01;2.38;;;0.60;;
75608;SDS011;64194;51.044;13.780;2023-01-15T16:27:05;1.52;;;0.52;;
75608;SDS011;64194;51.044;13.780;2023-01-15T16:31:12;2.17;;;0.80;;
75608;SDS011;64194;51.044;13.780;2023-01-15T16:39:42;3.22;;;1.08;;
75608;SDS011;64194;51.044;13.780;2023-01-15T16:43:49;2.00;;;0.73;;
75608;SDS011;64194;51.044;13.780;2023-01-15T16:48:03;2.30;;;0.65;;
75608;SDS011;64194;51.044;13.780;2023-01-15T16:56:51;3.92;;;0.75;;
75608;SDS011;64194;51.044;13.780;2023-01-15T17:00:54;2.25;;;0.70;;
75608;SDS011;64194;51.044;13.780;2023-01-15T17:04:58;6.05;;;1.70;;
75608;SDS011;64194;51.044;13.780;2023-01-15T17:09:00;3.47;;;1.35;;
75608;SDS011;64194;51.044;13.780;2023-01-15T17:13:01;4.05;;;0.70;;
75608;SDS011;64194;51.044;13.780;2023-01-15T17:21:23;1.23;;;0.60;;
75608;SDS011;64194;51.044;13.780;2023-01-15T17:25:32;1.20;;;0.50;;
75608;SDS011;64194;51.044;13.780;2023-01-15T17:29:35;3.13;;;0.82;;
75608;SDS011;64194;51.044;13.780;2023-01-15T17:33:37;7.85;;;0.77;;
75608;SDS011;64194;51.044;13.780;2023-01-15T17:37:38;1.20;;;0.45;;
75608;SDS011;64194;51.044;13.780;2023-01-15T17:41:40;1.80;;;0.55;;
75608;SDS011;64194;51.044;13.780;2023-01-15T17:45:41;3.08;;;0.63;;
75608;SDS011;64194;51.044;13.780;2023-01-15T17:49:43;1.65;;;0.55;;
75608;SDS011;64194;51.044;13.780;2023-01-15T17:53:45;3.75;;;0.93;;
75608;SDS011;64194;51.044;13.780;2023-01-15T17:57:46;2.05;;;0.65;;
75608;SDS011;64194;51.044;13.780;2023-01-15T18:02:08;2.10;;;0.60;;
75608;SDS011;64194;51.044;13.780;2023-01-15T18:06:33;3.00;;;0.90;;
75608;SDS011;64194;51.044;13.780;2023-01-15T18:10:35;3.35;;;0.80;;
75608;SDS011;64194;51.044;13.780;2023-01-15T18:14:36;3.88;;;1.45;;
75608;SDS011;64194;51.044;13.780;2023-01-15T18:18:38;4.30;;;1.52;;
75608;SDS011;64194;51.044;13.780;2023-01-15T18:22:40;3.08;;;0.93;;
75608;SDS011;64194;51.044;13.780;2023-01-15T18:26:41;3.40;;;0.80;;
75608;SDS011;64194;51.044;13.780;2023-01-15T18:30:44;1.55;;;0.75;;
75608;SDS011;64194;51.044;13.780;2023-01-15T18:34:45;3.58;;;1.13;;
75608;SDS011;64194;51.044;13.780;2023-01-15T18:38:47;3.60;;;0.80;;
75608;SDS011;64194;51.044;13.780;2023-01-15T18:42:49;2.15;;;0.70;;
75608;SDS011;64194;51.044;13.780;2023-01-15T18:47:10;4.18;;;0.80;;
75608;SDS011;64194;51.044;13.780;2023-01-15T18:51:13;2.55;;;0.93;;
75608;SDS011;64194;51.044;13.780;2023-01-15T18:55:16;3.95;;;1.00;;
75608;SDS011;64194;51.044;13.780;2023-01-15T18:59:20;2.75;;;1.10;;
75608;SDS011;64194;51.044;13.780;2023-01-15T19:03:22;5.05;;;0.98;;
75608;SDS011;64194;51.044;13.780;2023-01-15T19:07:24;3.10;;;0.90;;
75608;SDS011;64194;51.044;13.780;2023-01-15T19:11:26;5.60;;;0.95;;
75608;SDS011;64194;51.044;13.780;2023-01-15T19:15:29;3.47;;;0.90;;
75608;SDS011;64194;51.044;13.780;2023-01-15T19:19:49;3.72;;;0.90;;
75608;SDS011;64194;51.044;13.780;2023-01-15T19:23:51;3.15;;;0.70;;
75608;SDS011;64194;51.044;13.780;2023-01-15T19:27:53;5.05;;;0.98;;
75608;SDS011;64194;51.044;13.780;2023-01-15T19:31:55;2.92;;;0.80;;
75608;SDS011;64194;51.044;13.780;2023-01-15T19:35:57;2.05;;;0.88;;
75608;SDS011;64194;51.044;13.780;2023-01-15T19:39:59;3.65;;;1.05;;
75608;SDS011;64194;51.044;13.780;2023-01-15T19:44:00;3.45;;;0.90;;
75608;SDS011;64194;51.044;13.780;2023-01-15T19:48:21;2.45;;;0.82;;
75608;SDS011;64194;51.044;13.780;2023-01-15T19:52:41;2.05;;;0.55;;
75608;SDS011;64194;51.044;13.780;2023-01-15T19:56:43;4.32;;;0.93;;
75608;SDS011;64194;51.044;13.780;2023-01-15T20:00:45;5.72;;;1.10;;
75608;SDS011;64194;51.044;13.780;2023-01-15T20:04:53;1.88;;;0.63;;
75608;SDS011;64194;51.044;13.780;2023-01-15T20:08:54;3.95;;;0.90;;
75608;SDS011;64194;51.044;13.780;2023-01-15T20:12:56;5.78;;;1.70;;
75608;SDS011;64194;51.044;13.780;2023-01-15T20:17:17;2.13;;;0.80;;
75608;SDS011;64194;51.044;13.780;2023-01-15T20:21:18;5.50;;;1.42;;
75608;SDS011;64194;51.044;13.780;2023-01-15T20:25:20;2.53;;;0.68;;
75608;SDS011;64194;51.044;13.780;2023-01-15T20:29:22;9.15;;;1.23;;
75608;SDS011;64194;51.044;13.780;2023-01-15T20:33:23;5.13;;;1.00;;
75608;SDS011;64194;51.044;13.780;2023-01-15T20:37:25;2.75;;;1.00;;
75608;SDS011;64194;51.044;13.780;2023-01-15T20:41:26;4.45;;;1.25;;
75608;SDS011;64194;51.044;13.780;2023-01-15T20:45:46;9.30;;;3.65;;
75608;SDS011;64194;51.044;13.780;2023-01-15T20:49:48;4.78;;;1.48;;
75608;SDS011;64194;51.044;13.780;2023-01-15T20:53:51;5.25;;;1.08;;
75608;SDS011;64194;51.044;13.780;2023-01-15T20:57:53;4.70;;;1.40;;
75608;SDS011;64194;51.044;13.780;2023-01-15T21:01:55;4.18;;;1.02;;
75608;SDS011;64194;51.044;13.780;2023-01-15T21:05:57;2.70;;;0.55;;
75608;SDS011;64194;51.044;13.780;2023-01-15T21:09:59;2.53;;;0.82;;
75608;SDS011;64194;51.044;13.780;2023-01-15T21:14:01;1.75;;;0.70;;
75608;SDS011;64194;51.044;13.780;2023-01-15T21:18:02;2.55;;;0.70;;
75608;SDS011;64194;51.044;13.780;2023-01-15T21:22:04;2.97;;;0.85;;
75608;SDS011;64194;51.044;13.780;2023-01-15T21:26:06;4.95;;;1.55;;
75608;SDS011;64194;51.044;13.780;2023-01-15T21:30:08;3.30;;;0.95;;
75608;SDS011;64194;51.044;13.780;2023-01-15T21:34:10;3.60;;;0.85;;
75608;SDS011;64194;51.044;13.780;2023-01-15T21:38:11;2.10;;;0.82;;
75608;SDS011;64194;51.044;13.780;2023-01-15T21:42:14;3.80;;;0.93;;
75608;SDS011;64194;51.044;13.780;2023-01-15T21:46:39;3.53;;;1.00;;
75608;SDS011;64194;51.044;13.780;2023-01-15T21:50:40;3.45;;;1.00;;
75608;SDS011;64194;51.044;13.780;2023-01-15T21:54:42;2.80;;;0.80;;
75608;SDS011;64194;51.044;13.780;2023-01-15T21:58:44;1.92;;;0.60;;
75608;SDS011;64194;51.044;13.780;2023-01-15T22:02:46;3.00;;;0.80;;
75608;SDS011;64194;51.044;13.780;2023-01-15T22:06:52;1.88;;;0.70;;
75608;SDS011;64194;51.044;13.780;2023-01-15T22:11:00;3.28;;;0.90;;
75608;SDS011;64194;51.044;13.780;2023-01-15T22:15:05;3.22;;;0.68;;
75608;SDS011;64194;51.044;13.780;2023-01-15T22:19:08;2.60;;;0.82;;
75608;SDS011;64194;51.044;13.780;2023-01-15T22:23:11;3.08;;;0.90;;
75608;SDS011;64194;51.044;13.780;2023-01-15T22:27:14;4.68;;;0.90;;
75608;SDS011;64194;51.044;13.780;2023-01-15T22:31:17;2.55;;;0.80;;
75608;SDS011;64194;51.044;13.780;2023-01-15T22:35:18;2.95;;;0.82;;
75608;SDS011;64194;51.044;13.780;2023-01-15T22:39:20;3.75;;;1.38;;
75608;SDS011;64194;51.044;13.780;2023-01-15T22:43:23;1.98;;;0.65;;
75608;SDS011;64194;51.044;13.780;2023-01-15T22:47:25;2.90;;;0.80;;
75608;SDS011;64194;51.044;13.780;2023-01-15T22:51:27;2.80;;;0.68;;
75608;SDS011;64194;51.044;13.780;2023-01-15T22:55:29;2.38;;;0.70;;
75608;SDS011;64194;51.044;13.780;2023-01-15T22:59:31;1.67;;;0.60;;
75608;SDS011;64194;51.044;13.780;2023-01-15T23:03:33;3.20;;;0.80;;
75608;SDS011;64194;51.044;13.780;2023-01-15T23:07:36;3.00;;;0.77;;
75608;SDS011;64194;51.044;13.780;2023-01-15T23:11:41;3.28;;;0.75;;
75608;SDS011;64194;51.044;13.780;2023-01-15T23:15:44;2.95;;;0.90;;
75608;SDS011;64194;51.044;13.780;2023-01-15T23:19:45;1.13;;;0.43;;
75608;SDS011;64194;51.044;13.780;2023-01-15T23:23:47;4.28;;;0.60;;
75608;SDS011;64194;51.044;13.780;2023-01-15T23:27:53;1.08;;;0.50;;
75608;SDS011;64194;51.044;13.780;2023-01-15T23:31:57;1.52;;;0.47;;
75608;SDS011;64194;51.044;13.780;2023-01-15T23:35:59;4.78;;;1.20;;
75608;SDS011;64194;51.044;13.780;2023-01-15T23:40:01;2.67;;;0.60;;
75608;SDS011;64194;51.044;13.780;2023-01-15T23:44:02;2.78;;;0.80;;
75608;SDS011;64194;51.044;13.780;2023-01-15T23:48:22;1.52;;;0.50;;
75608;SDS011;64194;51.044;13.780;2023-01-15T23:52:24;2.95;;;0.50;;
75608;SDS011;64194;51.044;13.780;2023-01-15T23:56:26;3.78;;;0.70;;
